sensor_id;sensor_type;location;lat;lon;timestamp;P1;durP1;ratioP1;P2;durP2;ratioP2
81799;SDS011;71195;52.528;5.704;2023-10-31T00:00:09;1.48;;;0.00;;
81799;SDS011;71195;52.528;5.704;2023-10-31T00:02:39;1.42;;;0.13;;
81799;SDS011;71195;52.528;5.704;2023-10-31T00:05:08;0.73;;;0.10;;
81799;SDS011;71195;52.528;5.704;2023-10-31T00:07:37;1.38;;;0.10;;
81799;SDS011;71195;52.528;5.704;2023-10-31T00:10:06;0.30;;;0.00;;
81799;SDS011;71195;52.528;5.704;2023-10-31T00:12:38;0.20;;;0.00;;
81799;SDS011;71195;52.528;5.704;2023-10-31T00:15:08;1.63;;;0.20;;
81799;SDS011;71195;52.528;5.704;2023-10-31T00:17:37;2.00;;;0.20;;
81799;SDS011;71195;52.528;5.704;2023-10-31T00:20:07;0.57;;;0.10;;
81799;SDS011;71195;52.528;5.704;2023-10-31T00:22:36;3.03;;;0.13;;
81799;SDS011;71195;52.528;5.704;2023-10-31T00:25:05;0.80;;;0.03;;
81799;SDS011;71195;52.528;5.704;2023-10-31T00:27:35;2.20;;;0.10;;
81799;SDS011;71195;52.528;5.704;2023-10-31T00:30:07;2.15;;;0.20;;
81799;SDS011;71195;52.528;5.704;2023-10-31T00:32:37;2.08;;;0.22;;
81799;SDS011;71195;52.528;5.704;2023-10-31T00:35:06;1.55;;;0.38;;
81799;SDS011;71195;52.528;5.704;2023-10-31T00:37:38;2.15;;;0.20;;
81799;SDS011;71195;52.528;5.704;2023-10-31T00:40:08;0.88;;;0.17;;
81799;SDS011;71195;52.528;5.704;2023-10-31T00:42:39;1.38;;;0.30;;
81799;SDS011;71195;52.528;5.704;2023-10-31T00:45:11;0.45;;;0.15;;
81799;SDS011;71195;52.528;5.704;2023-10-31T00:47:41;1.48;;;0.20;;
81799;SDS011;71195;52.528;5.704;2023-10-31T00:50:10;1.48;;;0.17;;
81799;SDS011;71195;52.528;5.704;2023-10-31T00:52:39;2.88;;;0.20;;
81799;SDS011;71195;52.528;5.704;2023-10-31T00:55:09;2.08;;;0.20;;
81799;SDS011;71195;52.528;5.704;2023-10-31T00:57:38;1.60;;;0.85;;
81799;SDS011;71195;52.528;5.704;2023-10-31T01:00:08;2.17;;;0.40;;
81799;SDS011;71195;52.528;5.704;2023-10-31T01:02:40;1.38;;;0.10;;
81799;SDS011;71195;52.528;5.704;2023-10-31T01:05:10;1.90;;;0.25;;
81799;SDS011;71195;52.528;5.704;2023-10-31T01:07:40;3.60;;;0.35;;
81799;SDS011;71195;52.528;5.704;2023-10-31T01:10:09;0.60;;;0.10;;
81799;SDS011;71195;52.528;5.704;2023-10-31T01:12:38;1.73;;;0.13;;
81799;SDS011;71195;52.528;5.704;2023-10-31T01:15:08;1.10;;;0.10;;
81799;SDS011;71195;52.528;5.704;2023-10-31T01:17:40;3.30;;;0.32;;
81799;SDS011;71195;52.528;5.704;2023-10-31T01:20:09;1.55;;;0.22;;
81799;SDS011;71195;52.528;5.704;2023-10-31T01:22:39;4.85;;;0.13;;
81799;SDS011;71195;52.528;5.704;2023-10-31T01:25:08;4.82;;;0.32;;
81799;SDS011;71195;52.528;5.704;2023-10-31T01:27:37;1.30;;;0.40;;
81799;SDS011;71195;52.528;5.704;2023-10-31T01:30:08;3.00;;;0.50;;
81799;SDS011;71195;52.528;5.704;2023-10-31T01:32:40;3.38;;;0.35;;
81799;SDS011;71195;52.528;5.704;2023-10-31T01:35:09;2.65;;;0.80;;
81799;SDS011;71195;52.528;5.704;2023-10-31T01:37:38;2.28;;;0.15;;
81799;SDS011;71195;52.528;5.704;2023-10-31T01:40:11;2.40;;;0.50;;
81799;SDS011;71195;52.528;5.704;2023-10-31T01:42:41;2.63;;;0.60;;
81799;SDS011;71195;52.528;5.704;2023-10-31T01:45:10;2.45;;;0.40;;
81799;SDS011;71195;52.528;5.704;2023-10-31T01:47:42;2.40;;;1.08;;
81799;SDS011;71195;52.528;5.704;2023-10-31T01:50:13;2.38;;;1.05;;
81799;SDS011;71195;52.528;5.704;2023-10-31T01:52:43;1.90;;;0.40;;
81799;SDS011;71195;52.528;5.704;2023-10-31T01:55:13;5.10;;;0.77;;
81799;SDS011;71195;52.528;5.704;2023-10-31T01:57:43;2.25;;;0.45;;
81799;SDS011;71195;52.528;5.704;2023-10-31T02:00:14;2.35;;;0.63;;
81799;SDS011;71195;52.528;5.704;2023-10-31T02:02:46;1.50;;;0.50;;
81799;SDS011;71195;52.528;5.704;2023-10-31T02:05:16;2.90;;;0.35;;
81799;SDS011;71195;52.528;5.704;2023-10-31T02:07:48;4.15;;;0.60;;
81799;SDS011;71195;52.528;5.704;2023-10-31T02:10:17;3.75;;;0.20;;
81799;SDS011;71195;52.528;5.704;2023-10-31T02:12:46;1.88;;;0.25;;
81799;SDS011;71195;52.528;5.704;2023-10-31T02:15:15;3.08;;;0.40;;
81799;SDS011;71195;52.528;5.704;2023-10-31T02:17:47;1.67;;;0.28;;
81799;SDS011;71195;52.528;5.704;2023-10-31T02:20:17;0.45;;;0.03;;
81799;SDS011;71195;52.528;5.704;2023-10-31T02:22:48;1.77;;;0.20;;
81799;SDS011;71195;52.528;5.704;2023-10-31T02:25:18;4.60;;;0.28;;
81799;SDS011;71195;52.528;5.704;2023-10-31T02:27:47;2.35;;;0.60;;
81799;SDS011;71195;52.528;5.704;2023-10-31T02:30:16;3.67;;;0.70;;
81799;SDS011;71195;52.528;5.704;2023-10-31T02:32:45;5.28;;;0.95;;
81799;SDS011;71195;52.528;5.704;2023-10-31T02:35:15;3.08;;;0.70;;
81799;SDS011;71195;52.528;5.704;2023-10-31T02:37:45;2.92;;;0.88;;
81799;SDS011;71195;52.528;5.704;2023-10-31T02:40:17;4.50;;;1.15;;
81799;SDS011;71195;52.528;5.704;2023-10-31T02:42:46;4.22;;;0.73;;
81799;SDS011;71195;52.528;5.704;2023-10-31T02:45:15;2.88;;;1.25;;
81799;SDS011;71195;52.528;5.704;2023-10-31T02:47:45;2.88;;;0.80;;
81799;SDS011;71195;52.528;5.704;2023-10-31T02:50:14;4.18;;;1.52;;
81799;SDS011;71195;52.528;5.704;2023-10-31T02:52:43;3.45;;;0.98;;
81799;SDS011;71195;52.528;5.704;2023-10-31T02:55:12;5.82;;;1.45;;
81799;SDS011;71195;52.528;5.704;2023-10-31T02:57:44;6.25;;;1.13;;
81799;SDS011;71195;52.528;5.704;2023-10-31T03:00:14;7.15;;;1.45;;
81799;SDS011;71195;52.528;5.704;2023-10-31T03:02:43;5.50;;;1.52;;
81799;SDS011;71195;52.528;5.704;2023-10-31T03:05:12;3.28;;;1.23;;
81799;SDS011;71195;52.528;5.704;2023-10-31T03:07:43;3.53;;;1.15;;
81799;SDS011;71195;52.528;5.704;2023-10-31T03:10:12;5.80;;;1.73;;
81799;SDS011;71195;52.528;5.704;2023-10-31T03:12:44;4.97;;;1.52;;
81799;SDS011;71195;52.528;5.704;2023-10-31T03:15:13;3.40;;;1.63;;
81799;SDS011;71195;52.528;5.704;2023-10-31T03:17:42;4.85;;;1.23;;
81799;SDS011;71195;52.528;5.704;2023-10-31T03:20:12;4.75;;;1.45;;
81799;SDS011;71195;52.528;5.704;2023-10-31T03:22:41;4.93;;;0.88;;
81799;SDS011;71195;52.528;5.704;2023-10-31T03:25:10;5.70;;;1.25;;
81799;SDS011;71195;52.528;5.704;2023-10-31T03:27:39;7.20;;;2.53;;
81799;SDS011;71195;52.528;5.704;2023-10-31T03:30:11;6.05;;;0.85;;
81799;SDS011;71195;52.528;5.704;2023-10-31T03:32:40;4.65;;;1.92;;
81799;SDS011;71195;52.528;5.704;2023-10-31T03:35:09;4.88;;;1.67;;
81799;SDS011;71195;52.528;5.704;2023-10-31T03:37:39;5.47;;;1.48;;
81799;SDS011;71195;52.528;5.704;2023-10-31T03:40:08;6.63;;;2.47;;
81799;SDS011;71195;52.528;5.704;2023-10-31T03:42:38;3.13;;;0.98;;
81799;SDS011;71195;52.528;5.704;2023-10-31T03:45:10;2.72;;;0.80;;
81799;SDS011;71195;52.528;5.704;2023-10-31T03:47:40;5.68;;;1.33;;
81799;SDS011;71195;52.528;5.704;2023-10-31T03:50:09;3.10;;;0.60;;
81799;SDS011;71195;52.528;5.704;2023-10-31T03:52:39;3.17;;;1.00;;
81799;SDS011;71195;52.528;5.704;2023-10-31T03:55:08;3.05;;;0.50;;
81799;SDS011;71195;52.528;5.704;2023-10-31T03:57:37;1.00;;;0.25;;
81799;SDS011;71195;52.528;5.704;2023-10-31T04:00:07;1.48;;;0.30;;
81799;SDS011;71195;52.528;5.704;2023-10-31T04:02:43;1.30;;;0.38;;
81799;SDS011;71195;52.528;5.704;2023-10-31T04:05:13;0.88;;;0.10;;
81799;SDS011;71195;52.528;5.704;2023-10-31T04:07:42;2.03;;;0.10;;
81799;SDS011;71195;52.528;5.704;2023-10-31T04:10:11;3.03;;;0.20;;
81799;SDS011;71195;52.528;5.704;2023-10-31T04:12:41;0.35;;;0.10;;
81799;SDS011;71195;52.528;5.704;2023-10-31T04:15:10;1.23;;;0.03;;
81799;SDS011;71195;52.528;5.704;2023-10-31T04:17:40;2.83;;;0.10;;
81799;SDS011;71195;52.528;5.704;2023-10-31T04:20:11;1.13;;;0.00;;
81799;SDS011;71195;52.528;5.704;2023-10-31T04:22:40;1.00;;;0.00;;
81799;SDS011;71195;52.528;5.704;2023-10-31T04:25:09;1.50;;;0.70;;
81799;SDS011;71195;52.528;5.704;2023-10-31T04:27:39;1.50;;;0.10;;
81799;SDS011;71195;52.528;5.704;2023-10-31T04:30:08;1.65;;;0.22;;
81799;SDS011;71195;52.528;5.704;2023-10-31T04:32:38;4.38;;;0.10;;
81799;SDS011;71195;52.528;5.704;2023-10-31T04:35:10;1.90;;;0.20;;
81799;SDS011;71195;52.528;5.704;2023-10-31T04:37:39;2.05;;;0.13;;
81799;SDS011;71195;52.528;5.704;2023-10-31T04:40:09;1.45;;;0.65;;
81799;SDS011;71195;52.528;5.704;2023-10-31T04:42:39;3.28;;;0.05;;
81799;SDS011;71195;52.528;5.704;2023-10-31T04:45:09;1.40;;;0.10;;
81799;SDS011;71195;52.528;5.704;2023-10-31T04:47:38;2.78;;;0.13;;
81799;SDS011;71195;52.528;5.704;2023-10-31T04:50:11;0.08;;;0.00;;
81799;SDS011;71195;52.528;5.704;2023-10-31T04:52:40;0.80;;;0.13;;
81799;SDS011;71195;52.528;5.704;2023-10-31T04:55:10;0.32;;;0.00;;
81799;SDS011;71195;52.528;5.704;2023-10-31T04:57:39;0.17;;;0.10;;
81799;SDS011;71195;52.528;5.704;2023-10-31T05:00:09;2.42;;;0.20;;
81799;SDS011;71195;52.528;5.704;2023-10-31T05:02:39;0.20;;;0.10;;
81799;SDS011;71195;52.528;5.704;2023-10-31T05:05:11;1.77;;;0.00;;
81799;SDS011;71195;52.528;5.704;2023-10-31T05:07:40;0.40;;;0.05;;
81799;SDS011;71195;52.528;5.704;2023-10-31T05:10:09;0.20;;;0.10;;
81799;SDS011;71195;52.528;5.704;2023-10-31T05:12:38;0.30;;;0.10;;
81799;SDS011;71195;52.528;5.704;2023-10-31T05:15:08;0.57;;;0.17;;
81799;SDS011;71195;52.528;5.704;2023-10-31T05:17:38;0.40;;;0.10;;
81799;SDS011;71195;52.528;5.704;2023-10-31T05:20:07;0.40;;;0.17;;
81799;SDS011;71195;52.528;5.704;2023-10-31T05:22:40;0.68;;;0.00;;
81799;SDS011;71195;52.528;5.704;2023-10-31T05:25:09;1.02;;;0.15;;
81799;SDS011;71195;52.528;5.704;2023-10-31T05:27:39;0.45;;;0.45;;
81799;SDS011;71195;52.528;5.704;2023-10-31T05:30:08;2.03;;;0.40;;
81799;SDS011;71195;52.528;5.704;2023-10-31T05:32:38;0.28;;;0.10;;
81799;SDS011;71195;52.528;5.704;2023-10-31T05:35:07;0.40;;;0.03;;
81799;SDS011;71195;52.528;5.704;2023-10-31T05:40:09;0.57;;;0.57;;
81799;SDS011;71195;52.528;5.704;2023-10-31T05:42:39;1.05;;;0.00;;
81799;SDS011;71195;52.528;5.704;2023-10-31T05:45:09;2.65;;;0.10;;
81799;SDS011;71195;52.528;5.704;2023-10-31T05:47:38;0.20;;;0.10;;
81799;SDS011;71195;52.528;5.704;2023-10-31T05:50:08;1.08;;;0.00;;
81799;SDS011;71195;52.528;5.704;2023-10-31T05:52:39;3.25;;;0.00;;
81799;SDS011;71195;52.528;5.704;2023-10-31T05:55:09;0.32;;;0.32;;
81799;SDS011;71195;52.528;5.704;2023-10-31T05:57:38;0.98;;;0.10;;
81799;SDS011;71195;52.528;5.704;2023-10-31T06:00:07;0.90;;;0.50;;
81799;SDS011;71195;52.528;5.704;2023-10-31T06:02:39;0.90;;;0.10;;
81799;SDS011;71195;52.528;5.704;2023-10-31T06:05:11;0.00;;;0.00;;
81799;SDS011;71195;52.528;5.704;2023-10-31T06:07:40;1.27;;;0.10;;
81799;SDS011;71195;52.528;5.704;2023-10-31T06:10:09;0.30;;;0.00;;
81799;SDS011;71195;52.528;5.704;2023-10-31T06:12:39;0.35;;;0.08;;
81799;SDS011;71195;52.528;5.704;2023-10-31T06:15:08;0.30;;;0.00;;
81799;SDS011;71195;52.528;5.704;2023-10-31T06:17:38;1.13;;;0.10;;
81799;SDS011;71195;52.528;5.704;2023-10-31T06:20:07;1.98;;;0.03;;
81799;SDS011;71195;52.528;5.704;2023-10-31T06:22:40;0.45;;;0.10;;
81799;SDS011;71195;52.528;5.704;2023-10-31T06:25:09;0.93;;;0.17;;
81799;SDS011;71195;52.528;5.704;2023-10-31T06:27:38;1.13;;;0.00;;
81799;SDS011;71195;52.528;5.704;2023-10-31T06:30:08;0.30;;;0.00;;
81799;SDS011;71195;52.528;5.704;2023-10-31T06:32:38;1.00;;;0.10;;
81799;SDS011;71195;52.528;5.704;2023-10-31T06:35:10;1.52;;;0.15;;
81799;SDS011;71195;52.528;5.704;2023-10-31T06:37:40;1.75;;;0.20;;
81799;SDS011;71195;52.528;5.704;2023-10-31T06:40:09;1.92;;;0.05;;
81799;SDS011;71195;52.528;5.704;2023-10-31T06:42:39;0.20;;;0.00;;
81799;SDS011;71195;52.528;5.704;2023-10-31T06:45:08;0.68;;;0.10;;
81799;SDS011;71195;52.528;5.704;2023-10-31T06:47:38;0.38;;;0.00;;
81799;SDS011;71195;52.528;5.704;2023-10-31T06:50:08;0.25;;;0.03;;
81799;SDS011;71195;52.528;5.704;2023-10-31T06:56:01;1.25;;;0.13;;
81799;SDS011;71195;52.528;5.704;2023-10-31T07:01:04;3.55;;;0.25;;
81799;SDS011;71195;52.528;5.704;2023-10-31T07:03:33;1.50;;;0.30;;
81799;SDS011;71195;52.528;5.704;2023-10-31T07:06:05;0.73;;;0.30;;
81799;SDS011;71195;52.528;5.704;2023-10-31T07:11:03;1.40;;;0.40;;
81799;SDS011;71195;52.528;5.704;2023-10-31T07:13:33;1.77;;;0.40;;
81799;SDS011;71195;52.528;5.704;2023-10-31T07:16:02;2.88;;;0.30;;
81799;SDS011;71195;52.528;5.704;2023-10-31T07:18:32;2.35;;;0.13;;
81799;SDS011;71195;52.528;5.704;2023-10-31T07:21:01;1.27;;;0.20;;
81799;SDS011;71195;52.528;5.704;2023-10-31T07:26:02;1.40;;;0.40;;
81799;SDS011;71195;52.528;5.704;2023-10-31T07:28:32;3.08;;;0.60;;
81799;SDS011;71195;52.528;5.704;2023-10-31T07:31:01;1.30;;;0.20;;
81799;SDS011;71195;52.528;5.704;2023-10-31T07:33:31;2.88;;;0.50;;
81799;SDS011;71195;52.528;5.704;2023-10-31T07:36:00;1.70;;;0.63;;
81799;SDS011;71195;52.528;5.704;2023-10-31T07:38:32;1.15;;;0.20;;
81799;SDS011;71195;52.528;5.704;2023-10-31T07:41:01;2.78;;;0.65;;
81799;SDS011;71195;52.528;5.704;2023-10-31T07:43:31;3.47;;;0.63;;
81799;SDS011;71195;52.528;5.704;2023-10-31T07:46:00;4.05;;;0.40;;
81799;SDS011;71195;52.528;5.704;2023-10-31T07:48:29;1.58;;;0.20;;
81799;SDS011;71195;52.528;5.704;2023-10-31T07:50:59;1.20;;;0.35;;
81799;SDS011;71195;52.528;5.704;2023-10-31T07:53:29;4.07;;;0.25;;
81799;SDS011;71195;52.528;5.704;2023-10-31T07:56:00;1.17;;;0.32;;
81799;SDS011;71195;52.528;5.704;2023-10-31T07:58:29;1.63;;;0.25;;
81799;SDS011;71195;52.528;5.704;2023-10-31T08:00:59;0.80;;;0.20;;
81799;SDS011;71195;52.528;5.704;2023-10-31T08:03:29;1.63;;;1.15;;
81799;SDS011;71195;52.528;5.704;2023-10-31T08:05:58;2.60;;;0.63;;
81799;SDS011;71195;52.528;5.704;2023-10-31T08:08:27;2.30;;;0.38;;
81799;SDS011;71195;52.528;5.704;2023-10-31T08:10:58;1.20;;;0.40;;
81799;SDS011;71195;52.528;5.704;2023-10-31T08:13:28;0.93;;;0.60;;
81799;SDS011;71195;52.528;5.704;2023-10-31T08:15:58;2.55;;;0.50;;
81799;SDS011;71195;52.528;5.704;2023-10-31T08:18:27;5.00;;;0.30;;
81799;SDS011;71195;52.528;5.704;2023-10-31T08:20:56;1.55;;;0.95;;
81799;SDS011;71195;52.528;5.704;2023-10-31T08:23:25;3.30;;;0.30;;
81799;SDS011;71195;52.528;5.704;2023-10-31T08:25:54;3.33;;;0.28;;
81799;SDS011;71195;52.528;5.704;2023-10-31T08:28:26;1.63;;;0.32;;
81799;SDS011;71195;52.528;5.704;2023-10-31T08:33:24;5.43;;;0.73;;
81799;SDS011;71195;52.528;5.704;2023-10-31T08:35:54;1.30;;;0.35;;
81799;SDS011;71195;52.528;5.704;2023-10-31T08:38:23;1.80;;;0.70;;
81799;SDS011;71195;52.528;5.704;2023-10-31T08:40:54;2.05;;;0.75;;
81799;SDS011;71195;52.528;5.704;2023-10-31T08:43:25;2.78;;;1.23;;
81799;SDS011;71195;52.528;5.704;2023-10-31T08:45:55;1.65;;;0.57;;
81799;SDS011;71195;52.528;5.704;2023-10-31T08:48:24;1.90;;;0.57;;
81799;SDS011;71195;52.528;5.704;2023-10-31T08:50:53;2.17;;;0.93;;
81799;SDS011;71195;52.528;5.704;2023-10-31T08:53:22;3.33;;;0.73;;
81799;SDS011;71195;52.528;5.704;2023-10-31T08:55:51;3.47;;;1.35;;
81799;SDS011;71195;52.528;5.704;2023-10-31T08:58:22;4.88;;;1.15;;
81799;SDS011;71195;52.528;5.704;2023-10-31T09:00:53;6.40;;;1.20;;
81799;SDS011;71195;52.528;5.704;2023-10-31T09:03:23;2.22;;;0.82;;
81799;SDS011;71195;52.528;5.704;2023-10-31T09:05:52;4.35;;;1.20;;
81799;SDS011;71195;52.528;5.704;2023-10-31T09:08:21;3.78;;;1.20;;
81799;SDS011;71195;52.528;5.704;2023-10-31T09:10:50;2.95;;;0.77;;
81799;SDS011;71195;52.528;5.704;2023-10-31T09:13:19;2.45;;;1.15;;
81799;SDS011;71195;52.528;5.704;2023-10-31T09:15:49;2.05;;;0.60;;
81799;SDS011;71195;52.528;5.704;2023-10-31T09:18:21;3.15;;;1.77;;
81799;SDS011;71195;52.528;5.704;2023-10-31T09:20:50;3.75;;;1.40;;
81799;SDS011;71195;52.528;5.704;2023-10-31T09:23:20;6.07;;;1.13;;
81799;SDS011;71195;52.528;5.704;2023-10-31T09:25:49;1.63;;;0.70;;
81799;SDS011;71195;52.528;5.704;2023-10-31T09:28:18;3.13;;;1.05;;
81799;SDS011;71195;52.528;5.704;2023-10-31T09:30:47;2.90;;;0.77;;
81799;SDS011;71195;52.528;5.704;2023-10-31T09:33:16;2.13;;;0.82;;
81799;SDS011;71195;52.528;5.704;2023-10-31T09:35:48;4.45;;;1.00;;
81799;SDS011;71195;52.528;5.704;2023-10-31T09:38:17;2.78;;;0.70;;
81799;SDS011;71195;52.528;5.704;2023-10-31T09:40:46;0.73;;;0.40;;
81799;SDS011;71195;52.528;5.704;2023-10-31T09:43:16;3.35;;;0.43;;
81799;SDS011;71195;52.528;5.704;2023-10-31T09:45:46;2.22;;;0.22;;
81799;SDS011;71195;52.528;5.704;2023-10-31T09:48:15;2.10;;;0.10;;
81799;SDS011;71195;52.528;5.704;2023-10-31T09:50:44;2.03;;;0.30;;
81799;SDS011;71195;52.528;5.704;2023-10-31T09:53:18;1.23;;;0.43;;
81799;SDS011;71195;52.528;5.704;2023-10-31T09:55:48;1.63;;;0.13;;
81799;SDS011;71195;52.528;5.704;2023-10-31T09:58:19;1.20;;;0.10;;
81799;SDS011;71195;52.528;5.704;2023-10-31T10:00:51;2.58;;;0.20;;
81799;SDS011;71195;52.528;5.704;2023-10-31T10:03:20;0.63;;;0.13;;
81799;SDS011;71195;52.528;5.704;2023-10-31T10:05:53;1.52;;;0.10;;
81799;SDS011;71195;52.528;5.704;2023-10-31T10:08:22;1.40;;;0.05;;
81799;SDS011;71195;52.528;5.704;2023-10-31T10:10:52;1.13;;;0.10;;
81799;SDS011;71195;52.528;5.704;2023-10-31T10:13:22;1.15;;;0.17;;
81799;SDS011;71195;52.528;5.704;2023-10-31T10:15:51;1.52;;;0.13;;
81799;SDS011;71195;52.528;5.704;2023-10-31T10:18:24;2.75;;;0.20;;
81799;SDS011;71195;52.528;5.704;2023-10-31T10:21:00;0.77;;;0.00;;
81799;SDS011;71195;52.528;5.704;2023-10-31T10:26:02;0.28;;;0.08;;
81799;SDS011;71195;52.528;5.704;2023-10-31T10:28:34;0.57;;;0.20;;
81799;SDS011;71195;52.528;5.704;2023-10-31T10:31:04;1.73;;;0.10;;
81799;SDS011;71195;52.528;5.704;2023-10-31T10:33:34;1.85;;;0.10;;
81799;SDS011;71195;52.528;5.704;2023-10-31T10:36:07;0.70;;;0.00;;
81799;SDS011;71195;52.528;5.704;2023-10-31T10:38:38;4.35;;;0.10;;
81799;SDS011;71195;52.528;5.704;2023-10-31T10:41:10;3.00;;;0.52;;
81799;SDS011;71195;52.528;5.704;2023-10-31T10:43:42;2.08;;;0.08;;
81799;SDS011;71195;52.528;5.704;2023-10-31T10:46:13;1.58;;;0.20;;
81799;SDS011;71195;52.528;5.704;2023-10-31T10:48:47;1.45;;;0.10;;
81799;SDS011;71195;52.528;5.704;2023-10-31T10:51:21;2.05;;;0.10;;
81799;SDS011;71195;52.528;5.704;2023-10-31T10:53:57;0.38;;;0.10;;
81799;SDS011;71195;52.528;5.704;2023-10-31T10:56:33;0.25;;;0.10;;
81799;SDS011;71195;52.528;5.704;2023-10-31T10:59:07;0.82;;;0.10;;
81799;SDS011;71195;52.528;5.704;2023-10-31T11:01:43;0.65;;;0.10;;
81799;SDS011;71195;52.528;5.704;2023-10-31T11:04:15;2.15;;;0.00;;
81799;SDS011;71195;52.528;5.704;2023-10-31T11:06:47;0.98;;;0.10;;
81799;SDS011;71195;52.528;5.704;2023-10-31T11:09:17;1.92;;;0.10;;
81799;SDS011;71195;52.528;5.704;2023-10-31T11:11:46;1.35;;;0.40;;
81799;SDS011;71195;52.528;5.704;2023-10-31T11:14:16;1.02;;;0.00;;
81799;SDS011;71195;52.528;5.704;2023-10-31T11:16:47;0.00;;;0.00;;
81799;SDS011;71195;52.528;5.704;2023-10-31T11:19:20;0.90;;;0.00;;
81799;SDS011;71195;52.528;5.704;2023-10-31T11:21:57;0.00;;;0.00;;
81799;SDS011;71195;52.528;5.704;2023-10-31T11:24:27;0.57;;;0.22;;
81799;SDS011;71195;52.528;5.704;2023-10-31T11:26:58;0.50;;;0.03;;
81799;SDS011;71195;52.528;5.704;2023-10-31T11:29:28;1.83;;;0.10;;
81799;SDS011;71195;52.528;5.704;2023-10-31T11:31:59;1.70;;;0.10;;
81799;SDS011;71195;52.528;5.704;2023-10-31T11:34:29;1.08;;;0.08;;
81799;SDS011;71195;52.528;5.704;2023-10-31T11:42:49;0.88;;;0.00;;
81799;SDS011;71195;52.528;5.704;2023-10-31T11:45:26;0.35;;;0.10;;
81799;SDS011;71195;52.528;5.704;2023-10-31T11:47:57;1.00;;;0.00;;
81799;SDS011;71195;52.528;5.704;2023-10-31T11:50:26;1.15;;;0.43;;
81799;SDS011;71195;52.528;5.704;2023-10-31T11:53:05;0.95;;;0.10;;
81799;SDS011;71195;52.528;5.704;2023-10-31T11:55:39;0.80;;;0.10;;
81799;SDS011;71195;52.528;5.704;2023-10-31T11:58:16;0.70;;;0.00;;
81799;SDS011;71195;52.528;5.704;2023-10-31T12:00:47;0.60;;;0.00;;
81799;SDS011;71195;52.528;5.704;2023-10-31T12:03:17;0.30;;;0.00;;
81799;SDS011;71195;52.528;5.704;2023-10-31T12:05:51;1.55;;;0.00;;
81799;SDS011;71195;52.528;5.704;2023-10-31T12:08:28;3.22;;;0.00;;
81799;SDS011;71195;52.528;5.704;2023-10-31T12:11:07;1.05;;;0.00;;
81799;SDS011;71195;52.528;5.704;2023-10-31T12:13:38;1.27;;;0.00;;
81799;SDS011;71195;52.528;5.704;2023-10-31T12:16:09;0.47;;;0.00;;
81799;SDS011;71195;52.528;5.704;2023-10-31T12:18:38;0.47;;;0.03;;
81799;SDS011;71195;52.528;5.704;2023-10-31T12:21:07;1.08;;;0.00;;
81799;SDS011;71195;52.528;5.704;2023-10-31T12:23:42;0.65;;;0.00;;
81799;SDS011;71195;52.528;5.704;2023-10-31T12:26:11;0.77;;;0.03;;
81799;SDS011;71195;52.528;5.704;2023-10-31T12:28:41;0.75;;;0.10;;
81799;SDS011;71195;52.528;5.704;2023-10-31T12:31:10;0.75;;;0.10;;
81799;SDS011;71195;52.528;5.704;2023-10-31T12:33:39;0.00;;;0.00;;
81799;SDS011;71195;52.528;5.704;2023-10-31T12:36:08;1.00;;;0.15;;
81799;SDS011;71195;52.528;5.704;2023-10-31T12:38:38;0.45;;;0.10;;
81799;SDS011;71195;52.528;5.704;2023-10-31T12:41:10;1.58;;;0.00;;
81799;SDS011;71195;52.528;5.704;2023-10-31T12:43:39;2.10;;;0.10;;
81799;SDS011;71195;52.528;5.704;2023-10-31T12:48:52;1.20;;;0.00;;
81799;SDS011;71195;52.528;5.704;2023-10-31T12:51:21;1.05;;;0.13;;
81799;SDS011;71195;52.528;5.704;2023-10-31T12:53:50;0.85;;;0.00;;
81799;SDS011;71195;52.528;5.704;2023-10-31T12:59:10;1.20;;;0.00;;
81799;SDS011;71195;52.528;5.704;2023-10-31T13:01:42;0.10;;;0.00;;
81799;SDS011;71195;52.528;5.704;2023-10-31T13:04:11;0.20;;;0.10;;
81799;SDS011;71195;52.528;5.704;2023-10-31T13:06:40;0.55;;;0.20;;
81799;SDS011;71195;52.528;5.704;2023-10-31T13:09:11;0.45;;;0.00;;
81799;SDS011;71195;52.528;5.704;2023-10-31T13:11:43;0.20;;;0.00;;
81799;SDS011;71195;52.528;5.704;2023-10-31T13:14:16;2.08;;;0.08;;
81799;SDS011;71195;52.528;5.704;2023-10-31T13:16:45;2.25;;;0.10;;
81799;SDS011;71195;52.528;5.704;2023-10-31T13:19:14;1.17;;;0.00;;
81799;SDS011;71195;52.528;5.704;2023-10-31T13:21:44;0.30;;;0.10;;
81799;SDS011;71195;52.528;5.704;2023-10-31T13:24:13;0.47;;;0.00;;
81799;SDS011;71195;52.528;5.704;2023-10-31T13:26:45;0.90;;;0.00;;
81799;SDS011;71195;52.528;5.704;2023-10-31T13:29:17;0.85;;;0.10;;
81799;SDS011;71195;52.528;5.704;2023-10-31T13:31:46;0.10;;;0.00;;
81799;SDS011;71195;52.528;5.704;2023-10-31T13:34:15;0.45;;;0.00;;
81799;SDS011;71195;52.528;5.704;2023-10-31T13:36:44;0.50;;;0.00;;
81799;SDS011;71195;52.528;5.704;2023-10-31T13:39:13;0.88;;;0.00;;
81799;SDS011;71195;52.528;5.704;2023-10-31T13:41:46;1.45;;;0.00;;
81799;SDS011;71195;52.528;5.704;2023-10-31T13:44:15;2.35;;;0.03;;
81799;SDS011;71195;52.528;5.704;2023-10-31T13:46:45;1.33;;;0.00;;
81799;SDS011;71195;52.528;5.704;2023-10-31T13:49:17;0.98;;;0.00;;
81799;SDS011;71195;52.528;5.704;2023-10-31T13:51:46;1.52;;;0.10;;
81799;SDS011;71195;52.528;5.704;2023-10-31T13:54:16;0.88;;;0.00;;
81799;SDS011;71195;52.528;5.704;2023-10-31T13:56:47;0.00;;;0.00;;
81799;SDS011;71195;52.528;5.704;2023-10-31T13:59:17;3.17;;;0.05;;
81799;SDS011;71195;52.528;5.704;2023-10-31T14:01:46;0.98;;;0.15;;
81799;SDS011;71195;52.528;5.704;2023-10-31T14:04:15;0.30;;;0.00;;
81799;SDS011;71195;52.528;5.704;2023-10-31T14:06:45;0.73;;;0.03;;
81799;SDS011;71195;52.528;5.704;2023-10-31T14:09:15;0.32;;;0.30;;
81799;SDS011;71195;52.528;5.704;2023-10-31T14:11:44;1.17;;;0.00;;
81799;SDS011;71195;52.528;5.704;2023-10-31T14:14:15;1.85;;;0.03;;
81799;SDS011;71195;52.528;5.704;2023-10-31T14:16:46;0.85;;;0.00;;
81799;SDS011;71195;52.528;5.704;2023-10-31T14:19:15;0.90;;;0.00;;
81799;SDS011;71195;52.528;5.704;2023-10-31T14:21:44;0.10;;;0.10;;
81799;SDS011;71195;52.528;5.704;2023-10-31T14:24:15;0.45;;;0.00;;
81799;SDS011;71195;52.528;5.704;2023-10-31T14:26:44;0.25;;;0.00;;
81799;SDS011;71195;52.528;5.704;2023-10-31T14:29:15;2.03;;;0.20;;
81799;SDS011;71195;52.528;5.704;2023-10-31T14:31:44;0.80;;;0.20;;
81799;SDS011;71195;52.528;5.704;2023-10-31T14:34:13;0.52;;;0.10;;
81799;SDS011;71195;52.528;5.704;2023-10-31T14:36:43;0.20;;;0.00;;
81799;SDS011;71195;52.528;5.704;2023-10-31T14:39:12;3.80;;;0.10;;
81799;SDS011;71195;52.528;5.704;2023-10-31T14:41:41;2.65;;;0.00;;
81799;SDS011;71195;52.528;5.704;2023-10-31T14:44:10;1.95;;;0.10;;
81799;SDS011;71195;52.528;5.704;2023-10-31T14:46:50;0.75;;;0.10;;
81799;SDS011;71195;52.528;5.704;2023-10-31T14:49:20;0.47;;;0.22;;
81799;SDS011;71195;52.528;5.704;2023-10-31T14:51:49;0.88;;;0.10;;
81799;SDS011;71195;52.528;5.704;2023-10-31T14:54:18;2.78;;;0.40;;
81799;SDS011;71195;52.528;5.704;2023-10-31T14:56:47;3.25;;;0.47;;
81799;SDS011;71195;52.528;5.704;2023-10-31T14:59:17;0.38;;;0.03;;
81799;SDS011;71195;52.528;5.704;2023-10-31T15:01:48;1.65;;;0.32;;
81799;SDS011;71195;52.528;5.704;2023-10-31T15:04:17;1.25;;;0.08;;
81799;SDS011;71195;52.528;5.704;2023-10-31T15:06:46;0.68;;;0.20;;
81799;SDS011;71195;52.528;5.704;2023-10-31T15:09:16;3.17;;;0.88;;
81799;SDS011;71195;52.528;5.704;2023-10-31T15:11:46;1.13;;;0.35;;
81799;SDS011;71195;52.528;5.704;2023-10-31T15:14:15;0.68;;;0.10;;
81799;SDS011;71195;52.528;5.704;2023-10-31T15:16:44;2.05;;;0.20;;
81799;SDS011;71195;52.528;5.704;2023-10-31T15:19:16;0.93;;;0.20;;
81799;SDS011;71195;52.528;5.704;2023-10-31T15:21:45;0.57;;;0.17;;
81799;SDS011;71195;52.528;5.704;2023-10-31T15:24:14;2.05;;;0.40;;
81799;SDS011;71195;52.528;5.704;2023-10-31T15:26:43;2.10;;;0.43;;
81799;SDS011;71195;52.528;5.704;2023-10-31T15:29:12;0.90;;;0.20;;
81799;SDS011;71195;52.528;5.704;2023-10-31T15:31:42;1.27;;;0.20;;
81799;SDS011;71195;52.528;5.704;2023-10-31T15:34:15;0.45;;;0.10;;